sensor_id;sensor_type;location;lat;lon;timestamp;temperature;humidity
18948;DHT22;9607;51.600;7.558;2023-09-12T00:00:44;20.30;99.90
18948;DHT22;9607;51.600;7.558;2023-09-12T00:03:13;20.30;99.90
18948;DHT22;9607;51.600;7.558;2023-09-12T00:05:40;20.20;99.90
18948;DHT22;9607;51.600;7.558;2023-09-12T00:08:07;20.10;99.90
18948;DHT22;9607;51.600;7.558;2023-09-12T00:10:34;20.10;99.90
18948;DHT22;9607;51.600;7.558;2023-09-12T00:13:01;20.00;99.90
18948;DHT22;9607;51.600;7.558;2023-09-12T00:15:28;19.90;99.90
18948;DHT22;9607;51.600;7.558;2023-09-12T00:17:55;19.90;99.90
18948;DHT22;9607;51.600;7.558;2023-09-12T00:20:24;19.80;99.90
18948;DHT22;9607;51.600;7.558;2023-09-12T00:22:50;19.80;99.90
18948;DHT22;9607;51.600;7.558;2023-09-12T00:25:18;19.70;99.90
18948;DHT22;9607;51.600;7.558;2023-09-12T00:27:45;19.60;99.90
18948;DHT22;9607;51.600;7.558;2023-09-12T00:30:13;19.60;99.90
18948;DHT22;9607;51.600;7.558;2023-09-12T00:32:40;19.60;99.90
18948;DHT22;9607;51.600;7.558;2023-09-12T00:35:08;19.50;99.90
18948;DHT22;9607;51.600;7.558;2023-09-12T00:37:36;19.50;99.90
18948;DHT22;9607;51.600;7.558;2023-09-12T00:40:05;19.50;99.90
18948;DHT22;9607;51.600;7.558;2023-09-12T00:42:32;19.40;99.90
18948;DHT22;9607;51.600;7.558;2023-09-12T00:44:59;19.40;99.90
18948;DHT22;9607;51.600;7.558;2023-09-12T00:47:27;19.40;99.90
18948;DHT22;9607;51.600;7.558;2023-09-12T00:49:56;19.40;99.90
18948;DHT22;9607;51.600;7.558;2023-09-12T00:52:24;19.40;99.90
18948;DHT22;9607;51.600;7.558;2023-09-12T00:54:53;19.40;99.90
18948;DHT22;9607;51.600;7.558;2023-09-12T00:57:21;19.40;99.90
18948;DHT22;9607;51.600;7.558;2023-09-12T00:59:48;19.40;99.90
18948;DHT22;9607;51.600;7.558;2023-09-12T01:02:15;19.40;99.90
18948;DHT22;9607;51.600;7.558;2023-09-12T01:04:43;19.50;99.90
18948;DHT22;9607;51.600;7.558;2023-09-12T01:07:10;19.50;99.90
18948;DHT22;9607;51.600;7.558;2023-09-12T01:09:37;19.40;99.90
18948;DHT22;9607;51.600;7.558;2023-09-12T01:12:06;19.40;99.90
18948;DHT22;9607;51.600;7.558;2023-09-12T01:14:33;19.40;99.90
18948;DHT22;9607;51.600;7.558;2023-09-12T01:17:00;19.40;99.90
18948;DHT22;9607;51.600;7.558;2023-09-12T01:19:28;19.40;99.90
18948;DHT22;9607;51.600;7.558;2023-09-12T01:22:26;19.50;99.90
18948;DHT22;9607;51.600;7.558;2023-09-12T01:25:26;19.50;99.90
18948;DHT22;9607;51.600;7.558;2023-09-12T01:28:02;19.50;99.90
18948;DHT22;9607;51.600;7.558;2023-09-12T01:30:32;19.50;99.90
18948;DHT22;9607;51.600;7.558;2023-09-12T01:33:01;19.50;99.90
18948;DHT22;9607;51.600;7.558;2023-09-12T01:35:29;19.60;99.90
18948;DHT22;9607;51.600;7.558;2023-09-12T01:37:56;19.60;99.90
18948;DHT22;9607;51.600;7.558;2023-09-12T01:40:31;19.60;99.90
18948;DHT22;9607;51.600;7.558;2023-09-12T01:43:01;19.70;99.90
18948;DHT22;9607;51.600;7.558;2023-09-12T01:45:30;19.70;99.90
18948;DHT22;9607;51.600;7.558;2023-09-12T01:47:59;19.70;99.90
18948;DHT22;9607;51.600;7.558;2023-09-12T01:50:27;19.80;99.90
18948;DHT22;9607;51.600;7.558;2023-09-12T01:52:55;19.70;99.90
18948;DHT22;9607;51.600;7.558;2023-09-12T01:55:30;19.70;99.90
18948;DHT22;9607;51.600;7.558;2023-09-12T01:57:58;19.70;99.90
18948;DHT22;9607;51.600;7.558;2023-09-12T02:00:26;19.70;99.90
18948;DHT22;9607;51.600;7.558;2023-09-12T02:02:54;19.70;99.90
18948;DHT22;9607;51.600;7.558;2023-09-12T02:05:21;19.70;99.90
18948;DHT22;9607;51.600;7.558;2023-09-12T02:07:48;19.80;99.90
18948;DHT22;9607;51.600;7.558;2023-09-12T02:10:15;19.80;99.90
18948;DHT22;9607;51.600;7.558;2023-09-12T02:12:42;19.80;99.90
18948;DHT22;9607;51.600;7.558;2023-09-12T02:15:09;19.90;99.90
18948;DHT22;9607;51.600;7.558;2023-09-12T02:17:39;19.90;99.90
18948;DHT22;9607;51.600;7.558;2023-09-12T02:20:07;19.80;99.90
18948;DHT22;9607;51.600;7.558;2023-09-12T02:22:34;19.80;99.90
18948;DHT22;9607;51.600;7.558;2023-09-12T02:25:02;19.80;99.90
18948;DHT22;9607;51.600;7.558;2023-09-12T02:27:30;19.80;99.90
18948;DHT22;9607;51.600;7.558;2023-09-12T02:29:57;19.80;99.90
18948;DHT22;9607;51.600;7.558;2023-09-12T02:32:30;19.60;99.90
18948;DHT22;9607;51.600;7.558;2023-09-12T02:34:59;19.50;99.90
18948;DHT22;9607;51.600;7.558;2023-09-12T02:37:26;19.50;99.90
18948;DHT22;9607;51.600;7.558;2023-09-12T02:39:53;19.40;99.90
18948;DHT22;9607;51.600;7.558;2023-09-12T02:42:20;19.30;99.90
18948;DHT22;9607;51.600;7.558;2023-09-12T02:44:46;19.20;99.90
18948;DHT22;9607;51.600;7.558;2023-09-12T02:47:13;19.10;99.90
18948;DHT22;9607;51.600;7.558;2023-09-12T02:49:40;19.10;99.90
18948;DHT22;9607;51.600;7.558;2023-09-12T02:52:13;19.00;99.90
18948;DHT22;9607;51.600;7.558;2023-09-12T02:54:40;19.00;99.90
18948;DHT22;9607;51.600;7.558;2023-09-12T02:57:07;19.00;99.90
18948;DHT22;9607;51.600;7.558;2023-09-12T02:59:33;19.00;99.90
18948;DHT22;9607;51.600;7.558;2023-09-12T03:02:00;19.00;99.90
18948;DHT22;9607;51.600;7.558;2023-09-12T03:04:27;18.90;99.90
18948;DHT22;9607;51.600;7.558;2023-09-12T03:07:00;18.90;99.90
18948;DHT22;9607;51.600;7.558;2023-09-12T03:09:29;18.90;99.90
18948;DHT22;9607;51.600;7.558;2023-09-12T03:11:55;18.90;99.90
18948;DHT22;9607;51.600;7.558;2023-09-12T03:14:22;18.90;99.90
18948;DHT22;9607;51.600;7.558;2023-09-12T03:16:49;18.90;99.90
18948;DHT22;9607;51.600;7.558;2023-09-12T03:19:16;18.90;99.90
18948;DHT22;9607;51.600;7.558;2023-09-12T03:21:42;18.90;99.90
18948;DHT22;9607;51.600;7.558;2023-09-12T03:24:09;19.00;99.90
18948;DHT22;9607;51.600;7.558;2023-09-12T03:26:37;19.00;99.90
18948;DHT22;9607;51.600;7.558;2023-09-12T03:29:05;19.00;99.90
18948;DHT22;9607;51.600;7.558;2023-09-12T03:31:31;19.00;99.90
18948;DHT22;9607;51.600;7.558;2023-09-12T03:33:58;19.00;99.90
18948;DHT22;9607;51.600;7.558;2023-09-12T03:36:25;19.10;99.90
18948;DHT22;9607;51.600;7.558;2023-09-12T03:38:52;19.10;99.90
18948;DHT22;9607;51.600;7.558;2023-09-12T03:41:19;19.10;99.90
18948;DHT22;9607;51.600;7.558;2023-09-12T03:43:49;19.20;99.90
18948;DHT22;9607;51.600;7.558;2023-09-12T03:46:15;19.20;99.90
18948;DHT22;9607;51.600;7.558;2023-09-12T03:48:42;19.10;99.90
18948;DHT22;9607;51.600;7.558;2023-09-12T03:51:09;19.10;99.90
18948;DHT22;9607;51.600;7.558;2023-09-12T03:53:36;19.10;99.90
18948;DHT22;9607;51.600;7.558;2023-09-12T03:56:03;19.10;99.90
18948;DHT22;9607;51.600;7.558;2023-09-12T03:58:30;19.20;99.90
18948;DHT22;9607;51.600;7.558;2023-09-12T04:00:59;19.20;99.90
18948;DHT22;9607;51.600;7.558;2023-09-12T04:03:25;19.20;99.90
18948;DHT22;9607;51.600;7.558;2023-09-12T04:05:53;19.20;99.90
18948;DHT22;9607;51.600;7.558;2023-09-12T04:08:19;19.20;99.90
18948;DHT22;9607;51.600;7.558;2023-09-12T04:10:46;19.10;99.90
18948;DHT22;9607;51.600;7.558;2023-09-12T04:13:13;19.10;99.90
18948;DHT22;9607;51.600;7.558;2023-09-12T04:15:40;19.10;99.90
18948;DHT22;9607;51.600;7.558;2023-09-12T04:18:08;19.10;99.90
18948;DHT22;9607;51.600;7.558;2023-09-12T04:20:35;19.10;99.90
18948;DHT22;9607;51.600;7.558;2023-09-12T04:23:03;19.10;99.90
18948;DHT22;9607;51.600;7.558;2023-09-12T04:25:30;19.00;99.90
18948;DHT22;9607;51.600;7.558;2023-09-12T04:27:58;19.00;99.90
18948;DHT22;9607;51.600;7.558;2023-09-12T04:30:25;19.00;99.90
18948;DHT22;9607;51.600;7.558;2023-09-12T04:32:52;19.00;99.90
18948;DHT22;9607;51.600;7.558;2023-09-12T04:35:20;19.00;99.90
18948;DHT22;9607;51.600;7.558;2023-09-12T04:37:47;19.10;99.90
18948;DHT22;9607;51.600;7.558;2023-09-12T04:40:14;19.10;99.90
18948;DHT22;9607;51.600;7.558;2023-09-12T04:42:41;19.10;99.90
18948;DHT22;9607;51.600;7.558;2023-09-12T04:45:10;19.10;99.90
18948;DHT22;9607;51.600;7.558;2023-09-12T04:47:37;19.10;99.90
18948;DHT22;9607;51.600;7.558;2023-09-12T04:50:05;19.00;99.90
18948;DHT22;9607;51.600;7.558;2023-09-12T04:52:33;19.10;99.90
18948;DHT22;9607;51.600;7.558;2023-09-12T04:55:00;19.10;99.90
18948;DHT22;9607;51.600;7.558;2023-09-12T04:57:27;19.10;99.90
18948;DHT22;9607;51.600;7.558;2023-09-12T04:59:56;19.00;99.90
18948;DHT22;9607;51.600;7.558;2023-09-12T05:02:23;19.10;99.90
18948;DHT22;9607;51.600;7.558;2023-09-12T05:04:50;19.00;99.90
18948;DHT22;9607;51.600;7.558;2023-09-12T05:07:17;19.10;99.90
18948;DHT22;9607;51.600;7.558;2023-09-12T05:09:46;19.10;99.90
18948;DHT22;9607;51.600;7.558;2023-09-12T05:12:13;19.00;99.90
18948;DHT22;9607;51.600;7.558;2023-09-12T05:14:40;19.00;99.90
18948;DHT22;9607;51.600;7.558;2023-09-12T05:17:06;18.90;99.90
18948;DHT22;9607;51.600;7.558;2023-09-12T05:19:33;18.90;99.90
18948;DHT22;9607;51.600;7.558;2023-09-12T05:22:00;18.90;99.90
18948;DHT22;9607;51.600;7.558;2023-09-12T05:24:27;18.90;99.90
18948;DHT22;9607;51.600;7.558;2023-09-12T05:26:55;18.80;99.90
18948;DHT22;9607;51.600;7.558;2023-09-12T05:29:22;18.80;99.90
18948;DHT22;9607;51.600;7.558;2023-09-12T05:31:49;18.80;99.90
18948;DHT22;9607;51.600;7.558;2023-09-12T05:34:16;18.80;99.90
18948;DHT22;9607;51.600;7.558;2023-09-12T05:36:42;18.80;99.90
18948;DHT22;9607;51.600;7.558;2023-09-12T05:39:09;18.80;99.90
18948;DHT22;9607;51.600;7.558;2023-09-12T05:41:36;18.80;99.90
18948;DHT22;9607;51.600;7.558;2023-09-12T05:44:04;18.90;99.90
18948;DHT22;9607;51.600;7.558;2023-09-12T05:46:31;18.90;99.90
18948;DHT22;9607;51.600;7.558;2023-09-12T05:48:58;18.90;99.90
18948;DHT22;9607;51.600;7.558;2023-09-12T05:51:25;18.90;99.90
18948;DHT22;9607;51.600;7.558;2023-09-12T05:53:51;19.00;99.90
18948;DHT22;9607;51.600;7.558;2023-09-12T05:56:18;19.00;99.90
18948;DHT22;9607;51.600;7.558;2023-09-12T05:58:46;19.10;99.90
18948;DHT22;9607;51.600;7.558;2023-09-12T06:01:14;19.10;99.90
18948;DHT22;9607;51.600;7.558;2023-09-12T06:03:41;19.00;99.90
18948;DHT22;9607;51.600;7.558;2023-09-12T06:06:07;19.10;99.90
18948;DHT22;9607;51.600;7.558;2023-09-12T06:08:35;19.10;99.90
18948;DHT22;9607;51.600;7.558;2023-09-12T06:11:03;19.10;99.90
18948;DHT22;9607;51.600;7.558;2023-09-12T06:13:30;19.10;99.90
18948;DHT22;9607;51.600;7.558;2023-09-12T06:15:58;19.10;99.90
18948;DHT22;9607;51.600;7.558;2023-09-12T06:18:26;19.10;99.90
18948;DHT22;9607;51.600;7.558;2023-09-12T06:20:55;19.10;99.90
18948;DHT22;9607;51.600;7.558;2023-09-12T06:23:22;19.00;99.90
18948;DHT22;9607;51.600;7.558;2023-09-12T06:25:49;19.00;99.90
18948;DHT22;9607;51.600;7.558;2023-09-12T06:28:24;19.00;99.90
18948;DHT22;9607;51.600;7.558;2023-09-12T06:30:51;19.10;99.90
18948;DHT22;9607;51.600;7.558;2023-09-12T06:33:18;19.10;99.90
18948;DHT22;9607;51.600;7.558;2023-09-12T06:35:49;19.20;99.90
18948;DHT22;9607;51.600;7.558;2023-09-12T06:38:18;19.30;99.90
18948;DHT22;9607;51.600;7.558;2023-09-12T06:40:45;19.30;99.90
18948;DHT22;9607;51.600;7.558;2023-09-12T06:43:13;19.30;99.90
18948;DHT22;9607;51.600;7.558;2023-09-12T06:45:40;19.20;99.90
18948;DHT22;9607;51.600;7.558;2023-09-12T06:48:07;19.20;99.90
18948;DHT22;9607;51.600;7.558;2023-09-12T06:50:34;19.10;99.90
18948;DHT22;9607;51.600;7.558;2023-09-12T06:53:05;19.10;99.90
18948;DHT22;9607;51.600;7.558;2023-09-12T06:55:32;19.10;99.90
18948;DHT22;9607;51.600;7.558;2023-09-12T06:57:59;19.10;99.90
18948;DHT22;9607;51.600;7.558;2023-09-12T07:00:26;19.00;99.90
18948;DHT22;9607;51.600;7.558;2023-09-12T07:02:54;19.00;99.90
18948;DHT22;9607;51.600;7.558;2023-09-12T07:05:20;18.90;99.90
18948;DHT22;9607;51.600;7.558;2023-09-12T07:07:47;18.90;99.90
18948;DHT22;9607;51.600;7.558;2023-09-12T07:10:15;18.90;99.90
18948;DHT22;9607;51.600;7.558;2023-09-12T07:12:43;18.90;99.90
18948;DHT22;9607;51.600;7.558;2023-09-12T07:15:10;18.80;99.90
18948;DHT22;9607;51.600;7.558;2023-09-12T07:17:38;18.80;99.90
18948;DHT22;9607;51.600;7.558;2023-09-12T07:20:06;18.70;99.90
18948;DHT22;9607;51.600;7.558;2023-09-12T07:22:37;18.70;99.90
18948;DHT22;9607;51.600;7.558;2023-09-12T07:25:05;18.70;99.90
18948;DHT22;9607;51.600;7.558;2023-09-12T07:27:34;18.70;99.90
18948;DHT22;9607;51.600;7.558;2023-09-12T07:30:00;18.80;99.90
18948;DHT22;9607;51.600;7.558;2023-09-12T07:32:28;18.80;99.90
18948;DHT22;9607;51.600;7.558;2023-09-12T07:34:55;18.80;99.90
18948;DHT22;9607;51.600;7.558;2023-09-12T07:37:24;18.80;99.90
18948;DHT22;9607;51.600;7.558;2023-09-12T07:39:51;18.80;99.90
18948;DHT22;9607;51.600;7.558;2023-09-12T07:42:21;18.80;99.90
18948;DHT22;9607;51.600;7.558;2023-09-12T07:44:49;18.90;99.90
18948;DHT22;9607;51.600;7.558;2023-09-12T07:47:16;18.90;99.90
18948;DHT22;9607;51.600;7.558;2023-09-12T07:49:43;18.90;99.90
18948;DHT22;9607;51.600;7.558;2023-09-12T07:52:10;18.90;99.90
18948;DHT22;9607;51.600;7.558;2023-09-12T07:54:37;18.90;99.90
18948;DHT22;9607;51.600;7.558;2023-09-12T07:57:04;18.90;99.90
18948;DHT22;9607;51.600;7.558;2023-09-12T07:59:30;18.90;99.90
18948;DHT22;9607;51.600;7.558;2023-09-12T08:01:59;18.90;99.90
18948;DHT22;9607;51.600;7.558;2023-09-12T08:04:25;18.90;99.90
18948;DHT22;9607;51.600;7.558;2023-09-12T08:06:52;18.90;99.90
18948;DHT22;9607;51.600;7.558;2023-09-12T08:09:19;18.90;99.90
18948;DHT22;9607;51.600;7.558;2023-09-12T08:11:46;18.90;99.90
18948;DHT22;9607;51.600;7.558;2023-09-12T08:14:12;18.70;99.90
18948;DHT22;9607;51.600;7.558;2023-09-12T08:16:39;18.60;99.90
18948;DHT22;9607;51.600;7.558;2023-09-12T08:19:10;18.50;99.90
18948;DHT22;9607;51.600;7.558;2023-09-12T08:21:37;18.40;99.90
18948;DHT22;9607;51.600;7.558;2023-09-12T08:24:05;18.40;99.90
18948;DHT22;9607;51.600;7.558;2023-09-12T08:26:32;18.40;99.90
18948;DHT22;9607;51.600;7.558;2023-09-12T08:28:58;18.40;99.90
18948;DHT22;9607;51.600;7.558;2023-09-12T08:31:24;18.50;99.90
18948;DHT22;9607;51.600;7.558;2023-09-12T08:33:52;18.50;99.90
18948;DHT22;9607;51.600;7.558;2023-09-12T08:36:20;18.50;99.90
18948;DHT22;9607;51.600;7.558;2023-09-12T08:38:47;18.50;99.90
18948;DHT22;9607;51.600;7.558;2023-09-12T08:41:14;18.60;99.90
18948;DHT22;9607;51.600;7.558;2023-09-12T08:43:41;18.60;99.90
18948;DHT22;9607;51.600;7.558;2023-09-12T08:46:09;18.70;99.90
18948;DHT22;9607;51.600;7.558;2023-09-12T08:48:37;18.70;99.90
18948;DHT22;9607;51.600;7.558;2023-09-12T08:51:06;18.80;99.90
18948;DHT22;9607;51.600;7.558;2023-09-12T08:53:35;18.90;99.90
18948;DHT22;9607;51.600;7.558;2023-09-12T08:56:02;19.10;99.90
18948;DHT22;9607;51.600;7.558;2023-09-12T08:58:30;19.20;99.90
18948;DHT22;9607;51.600;7.558;2023-09-12T09:00:58;19.40;99.90
18948;DHT22;9607;51.600;7.558;2023-09-12T09:03:25;19.50;99.90
18948;DHT22;9607;51.600;7.558;2023-09-12T09:05:54;19.60;99.90
18948;DHT22;9607;51.600;7.558;2023-09-12T09:08:22;19.70;99.90
18948;DHT22;9607;51.600;7.558;2023-09-12T09:10:58;19.80;99.90
18948;DHT22;9607;51.600;7.558;2023-09-12T09:13:29;19.90;99.90
18948;DHT22;9607;51.600;7.558;2023-09-12T09:16:12;19.90;99.90
18948;DHT22;9607;51.600;7.558;2023-09-12T09:18:53;19.90;99.90
18948;DHT22;9607;51.600;7.558;2023-09-12T09:21:21;20.00;99.90
18948;DHT22;9607;51.600;7.558;2023-09-12T09:23:51;19.90;99.90
18948;DHT22;9607;51.600;7.558;2023-09-12T09:26:20;20.00;99.90
18948;DHT22;9607;51.600;7.558;2023-09-12T09:29:05;20.00;99.90
18948;DHT22;9607;51.600;7.558;2023-09-12T09:31:32;20.00;99.90
18948;DHT22;9607;51.600;7.558;2023-09-12T09:33:59;20.10;99.90
18948;DHT22;9607;51.600;7.558;2023-09-12T09:36:28;20.00;99.90
18948;DHT22;9607;51.600;7.558;2023-09-12T09:38:58;20.00;99.90
18948;DHT22;9607;51.600;7.558;2023-09-12T09:41:30;20.00;99.90
18948;DHT22;9607;51.600;7.558;2023-09-12T09:43:58;20.10;99.90
18948;DHT22;9607;51.600;7.558;2023-09-12T09:46:27;20.20;99.90
18948;DHT22;9607;51.600;7.558;2023-09-12T09:48:54;20.20;99.90
18948;DHT22;9607;51.600;7.558;2023-09-12T09:51:21;20.20;99.90
18948;DHT22;9607;51.600;7.558;2023-09-12T09:53:51;20.20;99.90
18948;DHT22;9607;51.600;7.558;2023-09-12T09:56:18;20.30;99.90
18948;DHT22;9607;51.600;7.558;2023-09-12T09:58:51;20.60;99.90
18948;DHT22;9607;51.600;7.558;2023-09-12T10:01:20;20.90;99.90
18948;DHT22;9607;51.600;7.558;2023-09-12T10:03:51;21.20;99.90
18948;DHT22;9607;51.600;7.558;2023-09-12T10:06:19;21.40;99.90
18948;DHT22;9607;51.600;7.558;2023-09-12T10:08:50;21.60;99.90
18948;DHT22;9607;51.600;7.558;2023-09-12T10:11:18;21.90;99.90
18948;DHT22;9607;51.600;7.558;2023-09-12T10:13:55;22.00;99.90
18948;DHT22;9607;51.600;7.558;2023-09-12T10:16:24;22.10;99.90
18948;DHT22;9607;51.600;7.558;2023-09-12T10:18:58;22.20;99.90
18948;DHT22;9607;51.600;7.558;2023-09-12T10:21:29;22.40;99.90
18948;DHT22;9607;51.600;7.558;2023-09-12T10:23:58;22.60;99.90
18948;DHT22;9607;51.600;7.558;2023-09-12T10:26:26;22.70;99.90
18948;DHT22;9607;51.600;7.558;2023-09-12T10:28:55;22.90;99.90
18948;DHT22;9607;51.600;7.558;2023-09-12T10:31:22;23.20;99.90
18948;DHT22;9607;51.600;7.558;2023-09-12T10:33:51;23.40;99.90
18948;DHT22;9607;51.600;7.558;2023-09-12T10:36:19;23.70;99.90
18948;DHT22;9607;51.600;7.558;2023-09-12T10:38:48;24.00;99.90
18948;DHT22;9607;51.600;7.558;2023-09-12T10:41:16;24.30;99.90
18948;DHT22;9607;51.600;7.558;2023-09-12T10:43:44;24.60;99.90
18948;DHT22;9607;51.600;7.558;2023-09-12T10:46:16;24.80;99.90
18948;DHT22;9607;51.600;7.558;2023-09-12T10:48:44;24.90;99.90
18948;DHT22;9607;51.600;7.558;2023-09-12T10:51:11;25.00;99.90
18948;DHT22;9607;51.600;7.558;2023-09-12T10:53:45;25.10;99.90
18948;DHT22;9607;51.600;7.558;2023-09-12T10:56:18;25.20;99.90
18948;DHT22;9607;51.600;7.558;2023-09-12T10:59:11;25.50;99.90
18948;DHT22;9607;51.600;7.558;2023-09-12T11:01:41;25.60;99.90
18948;DHT22;9607;51.600;7.558;2023-09-12T11:04:30;25.70;99.90
18948;DHT22;9607;51.600;7.558;2023-09-12T11:06:59;25.90;99.90
18948;DHT22;9607;51.600;7.558;2023-09-12T11:09:26;26.10;99.90
18948;DHT22;9607;51.600;7.558;2023-09-12T11:11:57;26.10;99.90
18948;DHT22;9607;51.600;7.558;2023-09-12T11:14:24;26.20;99.90
18948;DHT22;9607;51.600;7.558;2023-09-12T11:17:24;26.20;99.90
18948;DHT22;9607;51.600;7.558;2023-09-12T11:19:52;26.20;99.90
18948;DHT22;9607;51.600;7.558;2023-09-12T11:22:24;26.00;99.90
18948;DHT22;9607;51.600;7.558;2023-09-12T11:24:51;25.70;99.90
18948;DHT22;9607;51.600;7.558;2023-09-12T11:27:18;25.60;99.90
18948;DHT22;9607;51.600;7.558;2023-09-12T11:29:46;25.50;99.90
18948;DHT22;9607;51.600;7.558;2023-09-12T11:32:27;25.30;99.90
18948;DHT22;9607;51.600;7.558;2023-09-12T11:34:54;25.20;99.90
18948;DHT22;9607;51.600;7.558;2023-09-12T11:37:24;25.10;99.90
18948;DHT22;9607;51.600;7.558;2023-09-12T11:39:52;25.10;99.90
18948;DHT22;9607;51.600;7.558;2023-09-12T11:42:19;24.90;99.90
18948;DHT22;9607;51.600;7.558;2023-09-12T11:44:48;24.80;99.90
18948;DHT22;9607;51.600;7.558;2023-09-12T11:47:15;24.90;99.90
18948;DHT22;9607;51.600;7.558;2023-09-12T11:49:43;24.90;99.90
18948;DHT22;9607;51.600;7.558;2023-09-12T11:52:12;24.80;99.90
18948;DHT22;9607;51.600;7.558;2023-09-12T11:54:39;24.80;99.90
18948;DHT22;9607;51.600;7.558;2023-09-12T11:57:08;24.90;99.90
18948;DHT22;9607;51.600;7.558;2023-09-12T11:59:37;24.90;99.90
18948;DHT22;9607;51.600;7.558;2023-09-12T12:02:06;24.90;99.90
18948;DHT22;9607;51.600;7.558;2023-09-12T12:04:34;24.80;99.90
18948;DHT22;9607;51.600;7.558;2023-09-12T12:07:03;24.70;99.90
18948;DHT22;9607;51.600;7.558;2023-09-12T12:09:31;24.70;99.90
18948;DHT22;9607;51.600;7.558;2023-09-12T12:12:03;24.70;99.90
18948;DHT22;9607;51.600;7.558;2023-09-12T12:14:34;24.90;99.90
18948;DHT22;9607;51.600;7.558;2023-09-12T12:17:05;25.20;99.90
18948;DHT22;9607;51.600;7.558;2023-09-12T12:19:33;25.90;99.90
18948;DHT22;9607;51.600;7.558;2023-09-12T12:22:04;26.50;99.90
18948;DHT22;9607;51.600;7.558;2023-09-12T12:24:39;27.00;99.90
18948;DHT22;9607;51.600;7.558;2023-09-12T12:27:07;27.20;99.90
18948;DHT22;9607;51.600;7.558;2023-09-12T12:29:36;27.20;99.90
18948;DHT22;9607;51.600;7.558;2023-09-12T12:32:06;27.10;99.90
18948;DHT22;9607;51.600;7.558;2023-09-12T12:34:35;27.00;99.90
18948;DHT22;9607;51.600;7.558;2023-09-12T12:37:04;26.70;99.90
18948;DHT22;9607;51.600;7.558;2023-09-12T12:39:31;26.60;99.90
18948;DHT22;9607;51.600;7.558;2023-09-12T12:41:59;26.50;99.90
18948;DHT22;9607;51.600;7.558;2023-09-12T12:44:33;26.40;99.90
18948;DHT22;9607;51.600;7.558;2023-09-12T12:47:04;26.20;99.90
18948;DHT22;9607;51.600;7.558;2023-09-12T12:49:36;26.00;99.90
18948;DHT22;9607;51.600;7.558;2023-09-12T12:52:09;26.00;99.90
18948;DHT22;9607;51.600;7.558;2023-09-12T12:54:36;25.90;99.90
18948;DHT22;9607;51.600;7.558;2023-09-12T12:57:03;25.90;99.90
18948;DHT22;9607;51.600;7.558;2023-09-12T12:59:30;25.90;99.90
18948;DHT22;9607;51.600;7.558;2023-09-12T13:02:01;25.70;99.90
18948;DHT22;9607;51.600;7.558;2023-09-12T13:04:36;25.70;99.90
18948;DHT22;9607;51.600;7.558;2023-09-12T13:07:05;25.70;99.90
18948;DHT22;9607;51.600;7.558;2023-09-12T13:09:32;25.80;99.90
18948;DHT22;9607;51.600;7.558;2023-09-12T13:11:59;25.90;99.90
18948;DHT22;9607;51.600;7.558;2023-09-12T13:14:27;26.00;99.90
18948;DHT22;9607;51.600;7.558;2023-09-12T13:16:56;26.00;99.90
18948;DHT22;9607;51.600;7.558;2023-09-12T13:19:24;26.10;99.90
18948;DHT22;9607;51.600;7.558;2023-09-12T13:21:50;26.10;99.90
18948;DHT22;9607;51.600;7.558;2023-09-12T13:24:19;26.20;99.90
18948;DHT22;9607;51.600;7.558;2023-09-12T13:26:46;26.20;99.90
18948;DHT22;9607;51.600;7.558;2023-09-12T13:29:13;26.30;99.90
18948;DHT22;9607;51.600;7.558;2023-09-12T13:31:39;26.30;99.90
18948;DHT22;9607;51.600;7.558;2023-09-12T13:34:09;26.50;99.90
18948;DHT22;9607;51.600;7.558;2023-09-12T13:36:36;26.60;99.90
18948;DHT22;9607;51.600;7.558;2023-09-12T13:39:03;26.70;99.90
18948;DHT22;9607;51.600;7.558;2023-09-12T13:41:33;26.80;99.90
18948;DHT22;9607;51.600;7.558;2023-09-12T13:44:00;27.00;99.90
18948;DHT22;9607;51.600;7.558;2023-09-12T13:46:27;27.10;99.90
18948;DHT22;9607;51.600;7.558;2023-09-12T13:48:54;27.30;99.90
18948;DHT22;9607;51.600;7.558;2023-09-12T13:51:22;27.40;99.90
18948;DHT22;9607;51.600;7.558;2023-09-12T13:53:49;27.30;99.90
18948;DHT22;9607;51.600;7.558;2023-09-12T13:56:16;27.20;99.90
18948;DHT22;9607;51.600;7.558;2023-09-12T13:58:44;27.20;99.90
18948;DHT22;9607;51.600;7.558;2023-09-12T14:01:11;27.10;99.90
18948;DHT22;9607;51.600;7.558;2023-09-12T14:03:37;27.00;99.90
18948;DHT22;9607;51.600;7.558;2023-09-12T14:06:04;26.90;99.90
18948;DHT22;9607;51.600;7.558;2023-09-12T14:08:32;26.90;99.90
18948;DHT22;9607;51.600;7.558;2023-09-12T14:10:59;26.90;99.90
18948;DHT22;9607;51.600;7.558;2023-09-12T14:13:26;26.90;99.90
18948;DHT22;9607;51.600;7.558;2023-09-12T14:15:54;27.00;99.90
18948;DHT22;9607;51.600;7.558;2023-09-12T14:18:21;27.10;99.90
18948;DHT22;9607;51.600;7.558;2023-09-12T14:20:48;27.10;99.90
18948;DHT22;9607;51.600;7.558;2023-09-12T14:23:16;27.10;99.90
18948;DHT22;9607;51.600;7.558;2023-09-12T14:25:43;27.00;99.90
18948;DHT22;9607;51.600;7.558;2023-09-12T14:28:10;26.90;99.90
18948;DHT22;9607;51.600;7.558;2023-09-12T14:30:38;26.80;99.90
18948;DHT22;9607;51.600;7.558;2023-09-12T14:33:11;26.80;99.90
18948;DHT22;9607;51.600;7.558;2023-09-12T14:35:39;26.60;99.90
18948;DHT22;9607;51.600;7.558;2023-09-12T14:38:06;26.40;99.90
18948;DHT22;9607;51.600;7.558;2023-09-12T14:40:33;26.20;99.90
18948;DHT22;9607;51.600;7.558;2023-09-12T14:43:00;26.10;99.90
18948;DHT22;9607;51.600;7.558;2023-09-12T14:45:28;26.10;99.90
18948;DHT22;9607;51.600;7.558;2023-09-12T14:47:56;26.00;99.90
18948;DHT22;9607;51.600;7.558;2023-09-12T14:50:24;25.90;99.90
18948;DHT22;9607;51.600;7.558;2023-09-12T14:52:54;25.80;99.90
18948;DHT22;9607;51.600;7.558;2023-09-12T14:55:21;25.70;99.90
18948;DHT22;9607;51.600;7.558;2023-09-12T14:57:48;25.60;99.90
18948;DHT22;9607;51.600;7.558;2023-09-12T15:00:16;25.60;99.90
18948;DHT22;9607;51.600;7.558;2023-09-12T15:02:43;25.60;99.90
18948;DHT22;9607;51.600;7.558;2023-09-12T15:05:10;25.60;99.90
18948;DHT22;9607;51.600;7.558;2023-09-12T15:07:38;25.50;99.90
18948;DHT22;9607;51.600;7.558;2023-09-12T15:10:05;25.60;99.90
18948;DHT22;9607;51.600;7.558;2023-09-12T15:12:32;25.70;99.90
18948;DHT22;9607;51.600;7.558;2023-09-12T15:14:59;25.90;99.90
18948;DHT22;9607;51.600;7.558;2023-09-12T15:17:26;26.20;99.90
18948;DHT22;9607;51.600;7.558;2023-09-12T15:19:53;26.40;99.90
18948;DHT22;9607;51.600;7.558;2023-09-12T15:22:19;26.50;99.90
18948;DHT22;9607;51.600;7.558;2023-09-12T15:24:48;26.70;99.90
18948;DHT22;9607;51.600;7.558;2023-09-12T15:27:14;26.80;99.90
18948;DHT22;9607;51.600;7.558;2023-09-12T15:29:41;26.80;99.90
18948;DHT22;9607;51.600;7.558;2023-09-12T15:32:08;26.80;99.90
18948;DHT22;9607;51.600;7.558;2023-09-12T15:34:35;26.60;99.90
18948;DHT22;9607;51.600;7.558;2023-09-12T15:37:09;26.60;99.90
18948;DHT22;9607;51.600;7.558;2023-09-12T15:39:37;26.70;99.90
18948;DHT22;9607;51.600;7.558;2023-09-12T15:42:06;26.70;99.90
18948;DHT22;9607;51.600;7.558;2023-09-12T15:44:33;26.60;99.90
18948;DHT22;9607;51.600;7.558;2023-09-12T15:46:59;26.60;99.90
18948;DHT22;9607;51.600;7.558;2023-09-12T15:49:27;26.40;99.90
18948;DHT22;9607;51.600;7.558;2023-09-12T15:51:55;26.10;99.90